createdAt,value
2023-02-07T00:01:14.691Z,1.48
2023-02-07T00:03:41.494Z,1.40
2023-02-07T00:06:10.812Z,2.00
2023-02-07T00:08:39.174Z,1.50
2023-02-07T00:11:07.975Z,1.30
2023-02-07T00:13:35.401Z,1.50
2023-02-07T00:16:05.263Z,1.05
2023-02-07T00:18:33.008Z,1.40
2023-02-07T00:21:01.718Z,0.90
2023-02-07T00:23:28.922Z,1.00
2023-02-07T00:25:55.762Z,1.00
2023-02-07T00:28:22.703Z,1.00
2023-02-07T00:30:49.701Z,1.13
2023-02-07T00:33:16.600Z,2.05
2023-02-07T00:35:43.827Z,1.23
2023-02-07T00:38:10.573Z,1.17
2023-02-07T00:40:37.393Z,1.25
2023-02-07T00:43:04.156Z,1.00
2023-02-07T00:45:30.876Z,1.15
2023-02-07T00:47:57.613Z,1.00
2023-02-07T00:50:24.376Z,1.00
2023-02-07T00:52:51.194Z,0.90
2023-02-07T00:55:18.143Z,0.50
2023-02-07T00:57:44.853Z,0.70
2023-02-07T01:00:12.050Z,0.80
2023-02-07T01:02:39.476Z,0.80
2023-02-07T01:05:07.050Z,0.88
2023-02-07T01:07:34.480Z,0.70
2023-02-07T01:10:01.756Z,0.60
2023-02-07T01:12:28.632Z,0.90
2023-02-07T01:14:55.441Z,0.68
2023-02-07T01:17:22.188Z,0.70
2023-02-07T01:19:48.940Z,0.60
2023-02-07T01:22:15.693Z,0.52
2023-02-07T01:24:42.456Z,0.90
2023-02-07T01:27:11.172Z,1.17
2023-02-07T01:29:37.961Z,0.98
2023-02-07T01:32:05.006Z,0.70
2023-02-07T01:34:31.784Z,0.65
2023-02-07T01:36:58.547Z,0.52
2023-02-07T01:39:25.319Z,0.70
2023-02-07T01:41:52.052Z,0.77
2023-02-07T01:44:24.813Z,0.80
2023-02-07T01:46:52.494Z,0.82
2023-02-07T01:49:24.946Z,0.93
2023-02-07T01:51:56.413Z,0.98
2023-02-07T01:54:23.846Z,0.70
2023-02-07T01:56:57.565Z,0.70
2023-02-07T01:59:25.669Z,0.88
2023-02-07T02:01:52.520Z,1.45
2023-02-07T02:04:19.566Z,1.05
2023-02-07T02:06:46.618Z,1.20
2023-02-07T02:09:16.639Z,1.33
2023-02-07T02:12:21.325Z,1.10
2023-02-07T02:14:51.093Z,1.08
2023-02-07T02:17:32.731Z,1.15
2023-02-07T02:20:27.501Z,1.05
2023-02-07T02:23:06.710Z,1.20
2023-02-07T02:26:20.305Z,1.20
2023-02-07T02:29:12.153Z,1.05
2023-02-07T02:31:41.856Z,1.23
2023-02-07T02:34:11.718Z,0.90
2023-02-07T02:37:01.897Z,1.05
2023-02-07T02:39:46.477Z,0.82
2023-02-07T02:42:25.263Z,0.70
2023-02-07T02:44:57.421Z,0.80
2023-02-07T02:47:26.189Z,0.98
2023-02-07T02:49:53.109Z,0.90
2023-02-07T02:52:19.935Z,0.93
2023-02-07T02:54:46.741Z,0.93
2023-02-07T02:57:24.623Z,1.30
2023-02-07T02:59:54.360Z,1.08
2023-02-07T03:02:41.774Z,1.27
2023-02-07T03:05:11.724Z,0.70
2023-02-07T03:07:44.273Z,1.17
2023-02-07T03:10:14.146Z,1.13
2023-02-07T03:12:48.990Z,1.30
2023-02-07T03:15:51.605Z,1.08
2023-02-07T03:18:53.223Z,1.20
2023-02-07T03:21:41.387Z,1.00
2023-02-07T03:24:21.818Z,1.17
2023-02-07T03:26:52.915Z,1.10
2023-02-07T03:29:22.651Z,1.15
2023-02-07T03:31:52.789Z,0.90
2023-02-07T03:34:25.922Z,1.08
2023-02-07T03:37:10.310Z,1.17
2023-02-07T03:39:37.225Z,0.82
2023-02-07T03:42:16.049Z,1.35
2023-02-07T03:44:45.068Z,1.73
2023-02-07T03:47:11.777Z,1.73
2023-02-07T03:49:38.548Z,1.63
2023-02-07T03:52:05.416Z,1.45
2023-02-07T03:54:32.216Z,1.73
2023-02-07T03:56:59.572Z,1.80
2023-02-07T03:59:26.380Z,1.23
2023-02-07T04:01:53.185Z,1.30
2023-02-07T04:04:20.303Z,1.05
2023-02-07T04:06:47.157Z,1.23
2023-02-07T04:09:13.975Z,1.60
2023-02-07T04:11:40.840Z,1.20
2023-02-07T04:14:07.781Z,1.42
2023-02-07T04:16:34.666Z,1.17
2023-02-07T04:19:01.676Z,1.15
2023-02-07T04:21:28.475Z,1.10
2023-02-07T04:23:55.252Z,1.02
2023-02-07T04:26:22.047Z,1.20
2023-02-07T04:28:48.833Z,1.35
2023-02-07T04:31:15.646Z,1.30
2023-02-07T04:33:42.394Z,1.27
2023-02-07T04:36:09.438Z,1.50
2023-02-07T04:38:36.238Z,1.63
2023-02-07T04:41:04.966Z,1.80
2023-02-07T04:43:33.654Z,1.40
2023-02-07T04:46:00.833Z,1.90
2023-02-07T04:48:27.806Z,1.38
2023-02-07T04:50:54.876Z,1.27
2023-02-07T04:53:21.872Z,1.70
2023-02-07T04:55:52.854Z,1.55
2023-02-07T04:58:21.093Z,1.70
2023-02-07T05:00:48.033Z,1.70
2023-02-07T05:03:15.021Z,1.90
2023-02-07T05:05:43.392Z,1.85
2023-02-07T05:08:10.829Z,2.28
2023-02-07T05:10:38.196Z,2.20
2023-02-07T05:13:05.714Z,2.47
2023-02-07T05:15:32.741Z,2.83
2023-02-07T05:17:59.558Z,2.42
2023-02-07T05:20:26.632Z,2.50
2023-02-07T05:22:53.537Z,2.22
2023-02-07T05:25:20.435Z,2.17
2023-02-07T05:27:47.269Z,1.90
2023-02-07T05:30:14.374Z,2.22
2023-02-07T05:32:59.580Z,2.90
2023-02-07T05:35:26.379Z,3.10
2023-02-07T05:37:53.152Z,3.53
2023-02-07T05:40:20.048Z,3.45
2023-02-07T05:42:47.022Z,3.10
2023-02-07T05:45:13.914Z,3.28
2023-02-07T05:47:40.671Z,2.97
2023-02-07T05:50:07.580Z,3.40
2023-02-07T05:52:35.802Z,3.00
2023-02-07T05:55:03.028Z,3.05
2023-02-07T05:57:30.019Z,2.85
2023-02-07T05:59:56.993Z,2.58
2023-02-07T06:02:24.019Z,2.65
2023-02-07T06:04:50.905Z,3.28
2023-02-07T06:07:17.745Z,3.00
2023-02-07T06:09:44.528Z,3.28
2023-02-07T06:12:11.311Z,3.63
2023-02-07T06:14:38.288Z,3.55
2023-02-07T06:17:05.182Z,2.88
2023-02-07T06:19:31.957Z,2.90
2023-02-07T06:21:59.093Z,2.35
2023-02-07T06:24:25.910Z,2.50
2023-02-07T06:26:52.719Z,2.85
2023-02-07T06:29:19.570Z,2.55
2023-02-07T06:31:46.360Z,2.50
2023-02-07T06:34:13.270Z,1.88
2023-02-07T06:36:40.270Z,2.13
2023-02-07T06:39:07.090Z,2.40
2023-02-07T06:41:33.824Z,1.83
2023-02-07T06:44:00.686Z,1.95
2023-02-07T06:46:27.419Z,2.03
2023-02-07T06:48:54.328Z,1.85
2023-02-07T06:51:21.101Z,1.60
2023-02-07T06:53:47.868Z,1.85
2023-02-07T06:56:14.990Z,1.60
2023-02-07T06:58:42.775Z,1.70
2023-02-07T07:01:09.742Z,1.20
2023-02-07T07:03:36.758Z,1.58
2023-02-07T07:06:03.535Z,1.63
2023-02-07T07:08:30.378Z,1.52
2023-02-07T07:10:57.157Z,1.50
2023-02-07T07:13:24.288Z,1.70
2023-02-07T07:15:51.314Z,1.70
2023-02-07T07:18:18.206Z,1.88
2023-02-07T07:20:44.966Z,1.80
2023-02-07T07:23:11.722Z,2.38
2023-02-07T07:25:38.960Z,2.65
2023-02-07T07:28:05.936Z,3.88
2023-02-07T07:30:33.465Z,4.03
2023-02-07T07:33:00.245Z,4.50
2023-02-07T07:35:27.084Z,4.60
2023-02-07T07:37:53.960Z,4.32
2023-02-07T07:40:20.890Z,3.97
2023-02-07T07:42:47.841Z,3.53
2023-02-07T07:45:15.049Z,3.13
2023-02-07T07:47:41.909Z,3.92
2023-02-07T07:50:09.409Z,4.10
2023-02-07T07:52:36.377Z,3.75
2023-02-07T07:55:03.324Z,4.53
2023-02-07T07:57:30.286Z,6.20
2023-02-07T07:59:57.734Z,6.65
2023-02-07T08:02:24.557Z,5.75
2023-02-07T08:04:52.086Z,5.70
2023-02-07T08:07:19.194Z,7.63
2023-02-07T08:09:46.027Z,6.05
2023-02-07T08:12:13.014Z,6.72
2023-02-07T08:14:39.925Z,5.57
2023-02-07T08:17:06.806Z,6.00
2023-02-07T08:19:33.600Z,6.22
2023-02-07T08:22:00.445Z,6.18
2023-02-07T08:24:28.460Z,6.15
2023-02-07T08:26:55.611Z,6.70
2023-02-07T08:29:22.467Z,7.18
2023-02-07T08:31:49.603Z,6.15
2023-02-07T08:34:18.226Z,6.80
2023-02-07T08:36:44.999Z,6.10
2023-02-07T08:39:11.831Z,7.00
2023-02-07T08:41:38.551Z,8.02
2023-02-07T08:44:05.534Z,6.63
2023-02-07T08:46:32.595Z,7.68
2023-02-07T08:48:59.533Z,6.97
2023-02-07T08:51:26.334Z,6.30
2023-02-07T08:53:53.905Z,5.85
2023-02-07T08:56:20.812Z,5.70
2023-02-07T08:58:47.644Z,6.47
2023-02-07T09:01:14.513Z,5.95
2023-02-07T09:03:42.040Z,5.90
2023-02-07T09:06:09.105Z,7.55
2023-02-07T09:08:35.877Z,6.65
2023-02-07T09:11:09.041Z,6.63
2023-02-07T09:13:36.299Z,6.93
2023-02-07T09:16:03.089Z,5.80
2023-02-07T09:18:31.193Z,5.32
2023-02-07T09:20:58.051Z,4.95
2023-02-07T09:23:24.930Z,5.00
2023-02-07T09:25:52.753Z,6.63
2023-02-07T09:28:22.408Z,6.45
2023-02-07T09:30:49.923Z,7.15
2023-02-07T09:33:17.784Z,6.32
2023-02-07T09:35:46.785Z,5.25
2023-02-07T09:38:19.223Z,5.60
2023-02-07T09:40:48.695Z,5.20
2023-02-07T09:43:36.506Z,5.50
2023-02-07T09:46:19.154Z,5.13
2023-02-07T09:48:55.538Z,5.97
2023-02-07T09:51:23.853Z,6.53
2023-02-07T09:54:04.089Z,6.88
2023-02-07T09:56:32.693Z,7.20
2023-02-07T09:59:28.676Z,7.13
2023-02-07T10:02:04.265Z,6.88
2023-02-07T10:04:38.125Z,5.65
2023-02-07T10:07:07.971Z,5.25
2023-02-07T10:09:44.350Z,4.95
2023-02-07T10:12:33.152Z,5.25
2023-02-07T10:15:21.537Z,6.10
2023-02-07T10:18:16.139Z,5.22
2023-02-07T10:21:03.929Z,5.10
2023-02-07T10:23:42.691Z,5.30
2023-02-07T10:26:15.156Z,5.15
2023-02-07T10:29:11.177Z,3.92
2023-02-07T10:31:41.002Z,4.60
2023-02-07T10:34:16.661Z,4.38
2023-02-07T10:36:49.530Z,4.72
2023-02-07T10:39:44.199Z,4.80
2023-02-07T10:42:16.285Z,6.47
2023-02-07T10:44:43.820Z,6.38
2023-02-07T10:47:16.998Z,4.93
2023-02-07T10:49:47.002Z,5.25
2023-02-07T10:52:25.721Z,4.85
2023-02-07T10:54:57.158Z,4.47
2023-02-07T10:57:25.223Z,3.88
2023-02-07T11:00:13.464Z,3.75
2023-02-07T11:02:52.367Z,4.45
2023-02-07T11:05:20.041Z,5.78
2023-02-07T11:07:58.483Z,5.68
2023-02-07T11:10:34.230Z,4.40
2023-02-07T11:13:15.959Z,4.97
2023-02-07T11:16:07.114Z,4.30
2023-02-07T11:18:43.522Z,4.07
2023-02-07T11:21:38.399Z,4.70
2023-02-07T11:24:21.853Z,4.38
2023-02-07T11:27:07.066Z,5.43
2023-02-07T11:29:47.338Z,5.93
2023-02-07T11:32:15.743Z,5.90
2023-02-07T11:35:05.840Z,6.13
2023-02-07T11:37:37.868Z,5.07
2023-02-07T11:40:38.128Z,5.20
2023-02-07T11:43:17.057Z,5.65
2023-02-07T11:45:59.549Z,6.47
2023-02-07T11:48:36.915Z,5.90
2023-02-07T11:51:06.414Z,6.00
2023-02-07T11:53:47.393Z,5.28
2023-02-07T11:56:29.895Z,5.05
2023-02-07T11:58:58.782Z,5.30
2023-02-07T12:01:29.616Z,5.15
2023-02-07T12:04:15.265Z,5.97
2023-02-07T12:06:53.565Z,4.38
2023-02-07T12:09:34.528Z,4.50
2023-02-07T12:12:04.966Z,4.57
2023-02-07T12:14:44.902Z,4.85
2023-02-07T12:17:25.045Z,6.05
2023-02-07T12:20:25.858Z,6.05
2023-02-07T12:23:21.482Z,5.65
2023-02-07T12:26:03.102Z,5.20
2023-02-07T12:28:48.670Z,6.32
2023-02-07T12:31:47.903Z,6.43
2023-02-07T12:34:43.129Z,5.10
2023-02-07T12:37:28.306Z,5.47
2023-02-07T12:40:19.826Z,4.97
2023-02-07T12:42:57.917Z,5.80
2023-02-07T12:45:53.458Z,5.90
2023-02-07T12:48:44.512Z,6.00
2023-02-07T12:51:49.161Z,5.03
2023-02-07T12:55:03.914Z,4.15
2023-02-07T12:57:44.782Z,4.35
2023-02-07T13:00:30.547Z,4.30
2023-02-07T13:03:25.281Z,4.57
2023-02-07T13:05:52.001Z,4.72
2023-02-07T13:08:40.262Z,4.38
2023-02-07T13:11:37.807Z,4.95
2023-02-07T13:14:10.548Z,4.82
2023-02-07T13:17:18.365Z,4.50
2023-02-07T13:19:53.396Z,3.80
2023-02-07T13:22:43.555Z,4.22
2023-02-07T13:25:21.447Z,3.90
2023-02-07T13:27:49.855Z,5.30
2023-02-07T13:30:18.696Z,5.57
2023-02-07T13:32:47.388Z,5.35
2023-02-07T13:35:23.632Z,5.13
2023-02-07T13:38:07.268Z,5.43
2023-02-07T13:40:57.110Z,5.80
2023-02-07T13:43:45.681Z,5.38
2023-02-07T13:46:57.236Z,5.13
2023-02-07T13:49:45.702Z,4.88
2023-02-07T13:52:21.419Z,4.88
2023-02-07T13:54:54.509Z,5.43
2023-02-07T13:57:52.930Z,5.07
2023-02-07T14:00:25.023Z,4.80
2023-02-07T14:02:58.706Z,4.65
2023-02-07T14:05:39.730Z,4.65
2023-02-07T14:08:27.058Z,4.53
2023-02-07T14:10:57.516Z,5.43
2023-02-07T14:13:29.411Z,4.55
2023-02-07T14:16:09.038Z,3.85
2023-02-07T14:18:46.976Z,4.50
2023-02-07T14:21:22.266Z,5.20
2023-02-07T14:23:50.104Z,5.75
2023-02-07T14:26:36.797Z,5.15
2023-02-07T14:29:22.881Z,4.80
2023-02-07T14:32:20.457Z,5.65
2023-02-07T14:35:02.432Z,4.45
2023-02-07T14:37:41.585Z,3.90
2023-02-07T14:40:20.127Z,3.95
2023-02-07T14:43:13.206Z,4.78
2023-02-07T14:46:07.838Z,4.35
2023-02-07T14:48:46.816Z,4.45
2023-02-07T14:51:19.099Z,4.15
2023-02-07T14:53:55.216Z,3.95
2023-02-07T14:56:38.542Z,3.20
2023-02-07T14:59:06.321Z,4.50
2023-02-07T15:01:33.174Z,3.95
2023-02-07T15:04:05.548Z,4.30
2023-02-07T15:06:44.865Z,4.18
2023-02-07T15:09:26.965Z,3.83
2023-02-07T15:12:12.787Z,4.95
2023-02-07T15:14:46.572Z,5.03
2023-02-07T15:17:13.633Z,4.43
2023-02-07T15:19:42.034Z,4.28
2023-02-07T15:22:23.936Z,4.32
2023-02-07T15:24:55.197Z,3.38
2023-02-07T15:27:27.651Z,3.85
2023-02-07T15:30:01.197Z,3.47
2023-02-07T15:32:31.624Z,2.95
2023-02-07T15:34:59.584Z,3.92
2023-02-07T15:37:27.714Z,3.58
2023-02-07T15:39:57.680Z,2.88
2023-02-07T15:42:25.082Z,3.08
2023-02-07T15:44:57.136Z,2.80
2023-02-07T15:47:30.083Z,3.08
2023-02-07T15:50:04.647Z,2.95
2023-02-07T15:52:45.343Z,2.75
2023-02-07T15:55:38.463Z,2.50
2023-02-07T15:58:06.115Z,2.10
2023-02-07T16:00:38.983Z,1.73
2023-02-07T16:03:30.902Z,2.20
2023-02-07T16:06:21.232Z,1.80
2023-02-07T16:08:53.601Z,2.00
2023-02-07T16:11:32.785Z,2.28
2023-02-07T16:14:04.809Z,2.22
2023-02-07T16:16:40.634Z,1.83
2023-02-07T16:19:28.561Z,1.70
2023-02-07T16:22:03.823Z,1.83
2023-02-07T16:24:35.485Z,1.95
2023-02-07T16:27:03.100Z,1.98
2023-02-07T16:29:30.020Z,2.20
2023-02-07T16:31:57.329Z,2.25
2023-02-07T16:34:24.249Z,2.88
2023-02-07T16:36:55.495Z,2.25
2023-02-07T16:39:23.489Z,2.17
2023-02-07T16:41:56.979Z,1.75
2023-02-07T16:44:25.646Z,2.03
2023-02-07T16:46:52.887Z,2.72
2023-02-07T16:49:25.452Z,2.67
2023-02-07T16:51:52.954Z,2.65
2023-02-07T16:54:20.457Z,2.67
2023-02-07T16:56:51.348Z,2.22
2023-02-07T16:59:23.293Z,2.15
2023-02-07T17:01:52.151Z,1.50
2023-02-07T17:04:20.117Z,1.60
2023-02-07T17:06:47.543Z,1.52
2023-02-07T17:09:22.599Z,1.67
2023-02-07T17:11:49.740Z,1.48
2023-02-07T17:14:17.050Z,1.40
2023-02-07T17:16:44.120Z,1.77
2023-02-07T17:19:14.044Z,1.50
2023-02-07T17:21:44.315Z,1.98
2023-02-07T17:24:11.782Z,1.83
2023-02-07T17:26:40.328Z,2.70
2023-02-07T17:29:07.909Z,2.60
2023-02-07T17:31:34.916Z,2.97
2023-02-07T17:34:01.748Z,2.50
2023-02-07T17:36:29.114Z,2.28
2023-02-07T17:38:59.020Z,2.03
2023-02-07T17:41:26.605Z,1.88
2023-02-07T17:43:53.887Z,1.90
2023-02-07T17:46:23.484Z,2.38
2023-02-07T17:48:51.479Z,2.25
2023-02-07T17:51:21.264Z,2.50
2023-02-07T17:53:48.302Z,1.58
2023-02-07T17:56:34.954Z,1.90
2023-02-07T17:59:04.504Z,1.75
2023-02-07T18:01:32.009Z,1.58
2023-02-07T18:03:59.271Z,1.98
2023-02-07T18:06:28.476Z,1.63
2023-02-07T18:08:58.704Z,1.52
2023-02-07T18:11:27.265Z,1.60
2023-02-07T18:13:57.069Z,1.23
2023-02-07T18:16:25.929Z,1.20
2023-02-07T18:18:54.666Z,1.25
2023-02-07T18:21:21.971Z,1.38
2023-02-07T18:23:48.908Z,1.40
2023-02-07T18:26:16.719Z,1.48
2023-02-07T18:28:44.456Z,1.52
2023-02-07T18:31:24.109Z,1.02
2023-02-07T18:33:52.565Z,1.38
2023-02-07T18:36:21.596Z,1.65
2023-02-07T18:38:55.612Z,1.48
2023-02-07T18:41:23.493Z,1.52
2023-02-07T18:43:51.672Z,1.23
2023-02-07T18:46:20.849Z,1.40
2023-02-07T18:48:51.435Z,1.63
2023-02-07T18:51:19.713Z,2.08
2023-02-07T18:53:47.528Z,1.95
2023-02-07T18:56:17.170Z,1.95
2023-02-07T18:58:46.969Z,2.08
2023-02-07T19:01:20.394Z,2.03
2023-02-07T19:03:51.617Z,1.70
2023-02-07T19:06:18.808Z,1.85
2023-02-07T19:08:45.719Z,1.73
2023-02-07T19:11:12.589Z,1.95
2023-02-07T19:13:39.689Z,1.60
2023-02-07T19:16:08.995Z,1.50
2023-02-07T19:18:35.916Z,1.50
2023-02-07T19:21:08.073Z,1.60
2023-02-07T19:23:35.367Z,1.92
2023-02-07T19:26:04.026Z,1.67
2023-02-07T19:28:32.020Z,1.73
2023-02-07T19:30:59.277Z,1.70
2023-02-07T19:33:26.377Z,1.67
2023-02-07T19:35:53.283Z,1.75
2023-02-07T19:38:20.031Z,1.95
2023-02-07T19:40:56.814Z,1.98
2023-02-07T19:43:24.245Z,2.42
2023-02-07T19:45:51.660Z,1.77
2023-02-07T19:48:18.432Z,2.20
2023-02-07T19:50:45.331Z,1.98
2023-02-07T19:53:13.771Z,2.05
2023-02-07T19:55:41.356Z,2.00
2023-02-07T19:58:08.120Z,1.65
2023-02-07T20:00:35.126Z,1.73
2023-02-07T20:03:02.032Z,1.85
2023-02-07T20:05:29.288Z,2.28
2023-02-07T20:07:57.736Z,2.35
2023-02-07T20:10:24.670Z,2.28
2023-02-07T20:12:52.795Z,2.40
2023-02-07T20:15:19.786Z,2.00
2023-02-07T20:17:46.662Z,1.70
2023-02-07T20:20:14.464Z,1.60
2023-02-07T20:22:41.226Z,2.00
2023-02-07T20:25:08.599Z,2.03
2023-02-07T20:27:35.394Z,2.42
2023-02-07T20:30:02.388Z,2.58
2023-02-07T20:32:29.246Z,2.85
2023-02-07T20:34:56.129Z,2.97
2023-02-07T20:37:23.012Z,2.65
2023-02-07T20:39:49.825Z,2.28
2023-02-07T20:42:16.858Z,2.22
2023-02-07T20:44:43.630Z,2.28
2023-02-07T20:47:11.785Z,1.77
2023-02-07T20:49:38.592Z,2.22
2023-02-07T20:52:05.498Z,3.03
2023-02-07T20:54:32.656Z,3.33
2023-02-07T20:56:59.471Z,2.63
2023-02-07T20:59:32.853Z,3.20
2023-02-07T21:02:00.144Z,2.60
2023-02-07T21:04:28.335Z,3.08
2023-02-07T21:06:55.484Z,2.30
2023-02-07T21:09:22.899Z,2.80
2023-02-07T21:11:52.213Z,2.45
2023-02-07T21:14:25.623Z,2.53
2023-02-07T21:16:57.602Z,1.98
2023-02-07T21:19:25.480Z,2.03
2023-02-07T21:21:55.016Z,2.35
2023-02-07T21:24:22.366Z,2.10
2023-02-07T21:26:50.227Z,1.70
2023-02-07T21:29:18.074Z,2.22
2023-02-07T21:31:45.631Z,2.10
2023-02-07T21:34:15.543Z,2.03
2023-02-07T21:36:42.438Z,1.80
2023-02-07T21:39:12.140Z,1.58
2023-02-07T21:41:41.345Z,1.83
2023-02-07T21:44:08.852Z,1.83
2023-02-07T21:46:39.422Z,2.33
2023-02-07T21:49:10.229Z,1.75
2023-02-07T21:51:37.439Z,2.25
2023-02-07T21:54:07.488Z,2.25
2023-02-07T21:56:37.933Z,1.92
2023-02-07T21:59:07.232Z,1.70
2023-02-07T22:01:34.803Z,1.90
2023-02-07T22:04:03.617Z,2.22
2023-02-07T22:06:31.592Z,1.98
2023-02-07T22:09:00.769Z,1.90
2023-02-07T22:11:30.879Z,2.05
2023-02-07T22:13:58.401Z,1.80
2023-02-07T22:16:27.910Z,2.60
2023-02-07T22:18:55.890Z,3.22
2023-02-07T22:21:25.271Z,3.13
2023-02-07T22:23:53.016Z,2.33
2023-02-07T22:26:19.902Z,2.45
2023-02-07T22:28:46.932Z,2.15
2023-02-07T22:31:19.595Z,2.05
2023-02-07T22:33:47.219Z,1.85
2023-02-07T22:36:16.576Z,2.60
2023-02-07T22:38:43.463Z,2.50
2023-02-07T22:41:10.444Z,2.40
2023-02-07T22:43:38.716Z,2.15
2023-02-07T22:46:07.250Z,2.00
2023-02-07T22:48:35.155Z,2.47
2023-02-07T22:51:18.076Z,3.58
2023-02-07T22:53:45.088Z,4.28
2023-02-07T22:56:12.676Z,4.00
2023-02-07T22:58:41.172Z,3.35
2023-02-07T23:01:17.934Z,3.75
2023-02-07T23:03:44.719Z,4.47
2023-02-07T23:06:11.505Z,4.18
2023-02-07T23:08:38.376Z,3.08
2023-02-07T23:11:09.013Z,2.83
2023-02-07T23:13:35.831Z,2.50
2023-02-07T23:16:03.814Z,2.30
2023-02-07T23:18:30.631Z,2.35
2023-02-07T23:20:58.021Z,2.13
2023-02-07T23:23:25.273Z,2.03
2023-02-07T23:25:52.068Z,2.03
2023-02-07T23:28:18.854Z,1.98
2023-02-07T23:30:45.749Z,2.05
2023-02-07T23:33:12.735Z,1.80
2023-02-07T23:35:39.461Z,1.77
2023-02-07T23:38:06.575Z,1.90
2023-02-07T23:40:33.447Z,2.03
2023-02-07T23:43:00.262Z,2.00
2023-02-07T23:45:27.031Z,2.20
2023-02-07T23:47:54.160Z,2.45
2023-02-07T23:50:22.324Z,2.60
2023-02-07T23:52:49.114Z,2.58
2023-02-07T23:55:15.948Z,1.58
2023-02-07T23:57:42.715Z,1.98
